AA4621 / N405YX 7700 Squawk Report (19th of March, 2019)

Aircraft E175 Reg No. N405YX Age N/A
Model Emb-175 Jet engines 2 First flight N/A
Registered 24-08-13 Rollout 07-13 Delivered 24-08-13
Construction No. 17000368 Line No. N/A Series 200LR
ADSHEX A4C170 Airline name American Eagle Airlines Owner Republic Airline
Airfield based Indianapolis-International~IN~N First tracked 2017-07-13 00:29:00

Flight history for N405YX

Route Flight No Date Playback
La Guardia (LGA) - Miami Intl (MIA) AA4533 2019-04-24 14:01:00
Detroit Metro Wayne Co (DTW) - La Guardia (LGA) AA4447 2019-04-24 13:39:00
La Guardia (LGA) - Detroit Metro Wayne Co (DTW) AA4598 2019-04-24 10:47:00
La Guardia (LGA) - Raleigh Durham Intl (RDU) - La Guardia (LGA) AA4652 2019-04-23 23:28:00
La Guardia (LGA) - Lambert St Louis Intl (STL) - La Guardia (LGA) AA4416 2019-04-23 18:14:00
La Guardia (LGA) - Pittsburgh Intl (PIT) - La Guardia (LGA) AA4600 2019-04-23 03:35:00
???? N/A 2019-04-22 23:59:00
Lambert St Louis Intl (STL) - La Guardia (LGA) AA4371 2019-04-22 16:30:00
La Guardia (LGA) - Lambert St Louis Intl (STL) AA4557 2019-04-22 00:18:00
Palm Beach Intl (PBI) - La Guardia (LGA) AA4546 2019-04-21 19:59:00
Detroit Metro Wayne Co (DTW) - La Guardia (LGA) AA4447 2019-04-21 13:52:00
Ronald Reagan Washington Natl (DCA) - Detroit Metro Wayne Co (DTW) AA4463 2019-04-20 20:10:00
Ronald Reagan Washington Natl (DCA) - Sarasota Bradenton (SRQ) - Ronald Reagan Washington Natl (DCA) AA4469 2019-04-20 17:57:00
Detroit Metro Wayne Co (DTW) - Ronald Reagan Washington Natl (DCA) AA4376 2019-04-20 11:34:00
La Guardia (LGA) - Detroit Metro Wayne Co (DTW) AA4598 2019-04-20 10:21:00
La Guardia (LGA) - Raleigh Durham Intl (RDU) - La Guardia (LGA) AA4652 2019-04-19 23:13:00
La Guardia (LGA) - Lambert St Louis Intl (STL) - La Guardia (LGA) AA4416 2019-04-19 18:23:00
Nashville Intl (BNA) - La Guardia (LGA) AA4491 2019-04-19 10:58:00
La Guardia (LGA) - Hartsfield Jackson Atlanta Intl (ATL) - La Guardia (LGA) AA4498 2019-04-18 21:10:00
Indianapolis Intl (IND) - La Guardia (LGA) AA4535 2019-04-18 14:38:00
Time Lat Lon Altitude Heading Speed Vertical Rate
2019-03-19 16:04:02 GMT 39.870316 -75.227478 -250 256 137 -704
2019-03-19 16:03:50 GMT 39.872223 -75.217896 -100 257 137 -832
2019-03-19 16:03:40 GMT 39.873734 -75.209953 25 293 137 -256
2019-03-19 16:03:28 GMT 39.875565 -75.200523 200 256 142 -832
2019-03-19 16:03:25 GMT 39.875977 -75.198486 225 254 140 -256
2019-03-19 16:03:18 GMT 39.877300 -75.192444 300 254 140 -256
2019-03-19 16:03:07 GMT 39.878929 -75.182129 425 275 139 -640
2019-03-19 16:02:59 GMT 39.878494 -75.176575 500 273 139 -640
2019-03-19 16:02:56 GMT 39.878036 -75.174370 525 297 136 -128
2019-03-19 16:02:45 GMT 39.874512 -75.165588 525 307 136 0
2019-03-19 16:02:42 GMT 39.873482 -75.163940 550 310 137 -448
2019-03-19 16:02:35 GMT 39.869896 -75.159180 650 317 136 -704
2019-03-19 16:02:23 GMT 39.864777 -75.153503 950 328 148 -1152
2019-03-19 16:02:17 GMT 39.861004 -75.150085 950 328 148 -1152
2019-03-19 16:02:11 GMT 39.857887 -75.147583 1,050 331 154 -896
2019-03-19 16:02:02 GMT 39.851833 -75.143738 1,200 336 155 -640
2019-03-19 16:01:56 GMT 39.847923 -75.141541 1,200 338 153 -448
2019-03-19 16:01:51 GMT 39.843922 -75.139465 1,225 339 152 -64
2019-03-19 16:01:44 GMT 39.840569 -75.137756 1,200 339 153 256
2019-03-19 16:01:41 GMT 39.837032 -75.136047 1,175 341 155 -64
2019-03-19 16:01:35 GMT 39.833958 -75.134705 1,225 343 163 -768
2019-03-19 16:01:27 GMT 39.827442 -75.132019 1,275 344 174 -320
2019-03-19 16:01:24 GMT 39.825760 -75.131439 1,300 345 176 -832
2019-03-19 16:01:16 GMT 39.819260 -75.129288 1,425 346 185 -1024
2019-03-19 16:01:13 GMT 39.816734 -75.128479 1,475 347 190 -1472
2019-03-19 16:01:07 GMT 39.811615 -75.127022 1,650 349 193 -2048
2019-03-19 16:01:03 GMT 39.808411 -75.126305 1,800 0 193 -2368
2019-03-19 16:00:57 GMT 39.802536 -75.125916 2,075 3 191 -2368
2019-03-19 16:00:53 GMT 39.799164 -75.126366 2,225 9 189 -2304
2019-03-19 16:00:45 GMT 39.792667 -75.128662 2,475 21 190 -1024
2019-03-19 16:00:42 GMT 39.790146 -75.130066 2,500 27 192 -320
2019-03-19 16:00:36 GMT 39.785248 -75.134003 2,550 38 195 -448
2019-03-19 16:00:32 GMT 39.782501 -75.137047 2,575 43 194 64
2019-03-19 16:00:24 GMT 39.776047 -75.146301 2,525 52 194 256
2019-03-19 16:00:11 GMT 39.770973 -75.156494 2,475 63 200 192
2019-03-19 16:00:04 GMT 39.768368 -75.164246 2,500 68 223 -192
2019-03-19 16:00:00 GMT 39.767109 -75.168335 2,500 68 212 -128
2019-03-19 15:59:53 GMT 39.764328 -75.177231 2,525 68 223 -192
2019-03-19 15:59:50 GMT 39.763340 -75.180542 2,525 68 223 -128
2019-03-19 15:59:43 GMT 39.759842 -75.191978 2,775 68 232 -640
2019-03-19 15:59:40 GMT 39.759289 -75.193787 2,575 69 234 -1088
2019-03-19 15:59:30 GMT 39.755611 -75.208435 2,875 76 240 -1600
2019-03-19 15:59:19 GMT 39.753250 -75.222969 3,125 78 245 -1088
2019-03-19 15:59:08 GMT 39.750862 -75.238464 3,300 78 250 -1024
2019-03-19 15:59:01 GMT 39.748535 -75.253601 3,475 78 252 -832
2019-03-19 15:58:48 GMT 39.746201 -75.269127 3,525 78 254 320
2019-03-19 15:58:37 GMT 39.743649 -75.285522 3,575 78 254 -896
2019-03-19 15:58:26 GMT 39.741165 -75.301491 4,150 78 258 -1600
2019-03-19 15:58:16 GMT 39.738556 -75.317970 4,075 78 258 -1728
2019-03-19 15:58:05 GMT 39.736038 -75.334328 4,350 78 258 -1408
2019-03-19 15:57:56 GMT 39.733780 -75.348694 4,600 78 258 -1216
2019-03-19 15:57:53 GMT 39.733315 -75.351746 4,625 78 259 -1280
2019-03-19 15:57:43 GMT 39.730865 -75.368599 4,850 79 262 -1280
2019-03-19 15:57:39 GMT 39.730194 -75.373169 4,925 79 262 -1280
2019-03-19 15:57:36 GMT 39.729496 -75.378235 5,025 79 262 -1280
2019-03-19 15:57:33 GMT 39.728844 -75.383057 5,075 79 262 -1280
2019-03-19 15:57:23 GMT 39.726837 -75.397141 5,300 79 262 -1408
2019-03-19 15:57:19 GMT 39.725723 -75.404785 5,400 79 262 -1344
2019-03-19 15:57:13 GMT 39.724236 -75.415466 5,475 79 265 -64
2019-03-19 15:57:10 GMT 39.723816 -75.418579 5,475 79 265 -64
2019-03-19 15:57:03 GMT 39.722092 -75.430542 5,500 79 265 -64
2019-03-19 15:57:00 GMT 39.721344 -75.435890 5,500 79 265 -64
2019-03-19 15:56:53 GMT 39.720062 -75.445267 5,500 79 266 64
2019-03-19 15:56:49 GMT 39.719055 -75.452194 5,500 79 266 64
2019-03-19 15:56:42 GMT 39.717636 -75.462936 5,500 80 266 0
2019-03-19 15:56:39 GMT 39.717113 -75.467041 5,500 80 266 -64
2019-03-19 15:56:32 GMT 39.715851 -75.478104 5,500 83 266 -64
2019-03-19 15:56:29 GMT 39.715393 -75.484489 5,525 87 267 64
2019-03-19 15:56:22 GMT 39.715855 -75.495056 5,500 102 267 192
2019-03-19 15:56:17 GMT 39.717133 -75.501572 5,500 109 268 128
2019-03-19 15:56:11 GMT 39.722279 -75.515686 5,500 118 269 -128
2019-03-19 15:56:08 GMT 39.722279 -75.515686 5,500 119 269 -192
2019-03-19 15:56:00 GMT 39.727119 -75.526978 5,525 119 269 0
2019-03-19 15:55:56 GMT 39.729401 -75.532227 5,500 119 269 128
2019-03-19 15:55:50 GMT 39.733032 -75.540588 5,500 119 271 128
2019-03-19 15:55:46 GMT 39.736130 -75.547844 5,500 119 271 -128
2019-03-19 15:55:41 GMT 39.738945 -75.554382 5,500 119 271 -128
2019-03-19 15:55:35 GMT 39.742622 -75.562927 5,500 119 271 64
2019-03-19 15:55:28 GMT 39.746254 -75.571472 5,500 119 271 64
2019-03-19 15:55:24 GMT 39.749588 -75.579193 5,500 119 271 64
2019-03-19 15:55:19 GMT 39.752014 -75.584862 5,500 118 270 -64
2019-03-19 15:55:16 GMT 39.754074 -75.589722 5,500 119 269 -64
2019-03-19 15:55:13 GMT 39.756264 -75.594788 5,500 119 269 64
2019-03-19 15:55:09 GMT 39.758331 -75.599609 5,500 119 269 128
2019-03-19 15:55:05 GMT 39.760406 -75.604431 5,500 119 269 0
2019-03-19 15:55:02 GMT 39.762222 -75.608688 5,500 119 269 -192
2019-03-19 15:54:58 GMT 39.764503 -75.614014 5,500 119 269 -64
2019-03-19 15:54:54 GMT 39.766689 -75.619141 5,500 119 269 64
2019-03-19 15:54:48 GMT 39.771019 -75.629211 5,500 119 269 64
2019-03-19 15:54:44 GMT 39.772888 -75.633522 5,500 119 269 0
2019-03-19 15:54:41 GMT 39.774929 -75.638306 5,500 118 268 64
2019-03-19 15:54:37 GMT 39.779305 -75.648560 5,500 118 268 0
2019-03-19 15:54:34 GMT 39.779305 -75.648560 5,500 118 268 -64
2019-03-19 15:54:27 GMT 39.783447 -75.658264 5,500 118 268 64
2019-03-19 15:54:23 GMT 39.785824 -75.663879 5,500 118 268 0
2019-03-19 15:54:17 GMT 39.789825 -75.673172 5,500 118 268 0
2019-03-19 15:54:13 GMT 39.791641 -75.677429 5,500 118 268 -64
2019-03-19 15:54:08 GMT 39.794632 -75.684517 5,500 119 267 -64
2019-03-19 15:54:02 GMT 39.798203 -75.692818 5,500 119 267 -64
2019-03-19 15:53:58 GMT 39.804245 -75.707024 5,500 119 267 0
2019-03-19 15:53:53 GMT 39.804245 -75.707024 5,500 119 267 0
2019-03-19 15:53:45 GMT 39.808636 -75.717346 5,525 119 267 -192
2019-03-19 15:53:42 GMT 39.810402 -75.721375 5,525 119 267 -64
2019-03-19 15:53:34 GMT 39.815197 -75.732605 5,525 119 267 -896
2019-03-19 15:53:31 GMT 39.816788 -75.736282 5,575 119 267 -896
2019-03-19 15:53:24 GMT 39.821251 -75.746704 5,700 119 267 -1152
2019-03-19 15:53:18 GMT 39.824650 -75.754639 5,800 119 267 -1088
2019-03-19 15:53:15 GMT 39.827179 -75.760582 5,975 119 269 -1088
2019-03-19 15:53:08 GMT 39.830654 -75.768677 5,975 119 269 -1088
2019-03-19 15:53:04 GMT 39.835190 -75.779213 6,100 119 270 -1024
2019-03-19 15:52:58 GMT 39.836983 -75.783386 6,150 119 270 -960
2019-03-19 15:52:53 GMT 39.839916 -75.790161 6,225 119 270 -896
2019-03-19 15:52:49 GMT 39.842663 -75.796509 6,300 119 270 -896
2019-03-19 15:52:45 GMT 39.844711 -75.801247 6,350 119 271 -832
2019-03-19 15:52:39 GMT 39.849274 -75.811768 6,450 119 271 -704
2019-03-19 15:52:32 GMT 39.852905 -75.820175 6,500 119 273 -192
2019-03-19 15:52:29 GMT 39.859589 -75.835815 6,500 119 274 0
2019-03-19 15:52:21 GMT 39.861237 -75.839600 6,500 119 274 -64
2019-03-19 15:52:15 GMT 39.863113 -75.843941 6,500 119 274 0
2019-03-19 15:52:11 GMT 39.865894 -75.850464 6,500 119 274 64
2019-03-19 15:52:08 GMT 39.867737 -75.854744 6,500 119 274 64
2019-03-19 15:52:03 GMT 39.870872 -75.861938 6,500 119 274 64
2019-03-19 15:51:59 GMT 39.873459 -75.867943 6,500 119 273 0
2019-03-19 15:51:56 GMT 39.875290 -75.872063 6,500 119 273 -64
2019-03-19 15:51:46 GMT 39.881863 -75.887268 6,500 119 273 64
2019-03-19 15:51:34 GMT 39.888474 -75.902451 6,500 119 273 -64
2019-03-19 15:51:25 GMT 39.894928 -75.917320 6,500 119 273 0
2019-03-19 15:51:22 GMT 39.896164 -75.920181 6,500 119 273 -64
2019-03-19 15:51:14 GMT 39.901657 -75.932785 6,500 119 273 -128
2019-03-19 15:51:02 GMT 39.908844 -75.949440 6,500 119 272 -128
2019-03-19 15:50:52 GMT 39.915253 -75.964371 6,525 119 274 -256
2019-03-19 15:50:49 GMT 39.916866 -75.968140 6,525 119 274 -384
2019-03-19 15:50:42 GMT 39.921848 -75.979675 6,675 119 276 -1472
2019-03-19 15:50:37 GMT 39.924038 -75.984818 6,750 118 276 -1536
2019-03-19 15:50:31 GMT 39.927994 -75.994179 6,925 106 276 -1600
2019-03-19 15:50:21 GMT 39.934250 -76.010742 7,200 106 276 -1600
2019-03-19 15:50:15 GMT 39.936172 -76.018372 7,350 105 277 -1600
2019-03-19 15:50:10 GMT 39.937538 -76.026581 7,450 100 277 -1344
2019-03-19 15:50:00 GMT 39.940144 -76.044304 7,700 100 281 -1152
2019-03-19 15:49:57 GMT 39.940796 -76.048927 7,750 100 281 -1152
2019-03-19 15:49:51 GMT 39.942032 -76.057312 7,850 100 282 -1088
2019-03-19 15:49:47 GMT 39.943222 -76.065369 7,975 100 285 -960
2019-03-19 15:49:42 GMT 39.944504 -76.074219 8,000 100 286 -896
2019-03-19 15:49:38 GMT 39.945374 -76.080200 8,050 100 287 -832
2019-03-19 15:49:35 GMT 39.946243 -76.086128 8,100 100 290 -768
2019-03-19 15:49:28 GMT 39.948009 -76.098549 8,200 100 293 -832
2019-03-19 15:49:18 GMT 39.950245 -76.113846 8,325 100 295 -1152
2019-03-19 15:49:13 GMT 39.951874 -76.125076 8,450 100 296 -1024
2019-03-19 15:49:05 GMT 39.953522 -76.136536 8,500 100 299 -128
2019-03-19 15:49:02 GMT 39.954666 -76.144470 8,500 100 300 -192
2019-03-19 15:48:55 GMT 39.956223 -76.155151 8,600 100 300 -1024
2019-03-19 15:48:51 GMT 39.957508 -76.164032 8,650 100 301 -1088
2019-03-19 15:48:45 GMT 39.959061 -76.174988 8,750 100 301 -1024
2019-03-19 15:48:40 GMT 39.960342 -76.183716 8,825 100 302 -1088
2019-03-19 15:48:33 GMT 39.961761 -76.193604 8,925 100 302 -1024
2019-03-19 15:48:27 GMT 39.963280 -76.204041 9,025 100 303 -1024
2019-03-19 15:48:23 GMT 39.964508 -76.212463 9,225 100 304 -1024
2019-03-19 15:48:17 GMT 39.966156 -76.223999 9,225 100 304 -1024
2019-03-19 15:48:12 GMT 39.967468 -76.233009 9,325 100 304 -1024
2019-03-19 15:48:06 GMT 39.969040 -76.244202 9,425 100 304 -896
2019-03-19 15:48:01 GMT 39.970093 -76.251404 9,475 100 305 -640
2019-03-19 15:47:58 GMT 39.970917 -76.257355 9,500 100 305 -640
2019-03-19 15:47:54 GMT 39.972290 -76.267273 9,525 100 306 0
2019-03-19 15:47:50 GMT 39.973618 -76.276794 9,500 100 309 512
2019-03-19 15:47:44 GMT 39.974686 -76.284508 9,500 100 315 64
2019-03-19 15:47:41 GMT 39.975403 -76.289368 9,500 100 320 -64
2019-03-19 15:47:33 GMT 39.978409 -76.310722 9,475 100 373 -128
2019-03-19 15:47:29 GMT 39.980942 -76.327942 9,475 100 373 -128
2019-03-19 15:47:22 GMT 39.980942 -76.327942 9,450 100 363 -128
2019-03-19 15:47:09 GMT 39.985107 -76.357056 9,500 100 375 0
2019-03-19 15:46:57 GMT 39.991722 -76.403732 9,500 100 375 0
2019-03-19 15:46:47 GMT 39.991722 -76.403732 9,500 100 375 64
2019-03-19 15:46:36 GMT 39.995087 -76.427307 9,500 100 375 64
2019-03-19 15:46:28 GMT 39.997822 -76.446426 9,500 100 376 0
2019-03-19 15:46:25 GMT 39.998611 -76.452209 9,500 100 376 -64
2019-03-19 15:46:15 GMT 40.002182 -76.477234 9,500 100 376 0
2019-03-19 15:46:10 GMT 40.003223 -76.484818 9,500 100 376 0
2019-03-19 15:46:04 GMT 40.005550 -76.500862 9,500 100 376 0
2019-03-19 15:45:57 GMT 40.007584 -76.515381 9,500 100 376 0
2019-03-19 15:45:53 GMT 40.009094 -76.526306 9,500 100 376 0
2019-03-19 15:45:42 GMT 40.012299 -76.549255 9,500 100 376 0
2019-03-19 15:45:32 GMT 40.018982 -76.596680 9,500 100 376 64
2019-03-19 15:45:21 GMT 40.018982 -76.596680 9,500 100 376 0
2019-03-19 15:45:10 GMT 40.022369 -76.620728 9,500 100 376 0
2019-03-19 15:45:02 GMT 40.024822 -76.637939 9,500 100 376 -64
2019-03-19 15:44:59 GMT 40.025848 -76.645370 9,500 100 376 -64
2019-03-19 15:44:51 GMT 40.028175 -76.662102 9,500 100 376 64
2019-03-19 15:44:48 GMT 40.029373 -76.670593 9,500 100 375 64
2019-03-19 15:44:40 GMT 40.031807 -76.687943 9,500 100 375 64
2019-03-19 15:44:36 GMT 40.032990 -76.696594 9,500 100 375 -64
2019-03-19 15:44:29 GMT 40.034821 -76.709717 9,500 100 375 0
2019-03-19 15:44:26 GMT 40.036240 -76.719666 9,500 100 375 0
2019-03-19 15:44:20 GMT 40.037998 -76.732384 9,500 100 374 64
2019-03-19 15:44:13 GMT 40.040268 -76.749023 9,500 100 375 64
2019-03-19 15:44:08 GMT 40.041275 -76.756165 9,500 100 375 -128
2019-03-19 15:44:03 GMT 40.043350 -76.770897 9,525 100 376 -192
2019-03-19 15:43:59 GMT 40.044559 -76.779823 9,525 100 375 64
2019-03-19 15:43:47 GMT 40.049870 -76.818092 9,500 100 377 -448
2019-03-19 15:43:42 GMT 40.049870 -76.818092 9,500 100 376 -64
2019-03-19 15:43:36 GMT 40.053589 -76.844482 9,525 100 377 -448
2019-03-19 15:43:29 GMT 40.053589 -76.844482 9,600 100 377 -960
2019-03-19 15:43:26 GMT 40.054615 -76.852051 9,650 100 379 -960
2019-03-19 15:43:15 GMT 40.057800 -76.875061 9,800 100 380 -896
2019-03-19 15:43:05 GMT 40.062111 -76.906418 10,000 100 381 -192
2019-03-19 15:42:55 GMT 40.067230 -76.943626 10,000 100 381 128
2019-03-19 15:42:46 GMT 40.067230 -76.943626 10,000 100 380 64
2019-03-19 15:42:26 GMT 40.073090 -76.986511 10,000 100 381 -64
2019-03-19 15:42:21 GMT 40.074589 -76.997185 10,000 100 380 64
2019-03-19 15:42:12 GMT 40.077484 -77.018433 10,000 100 380 64
2019-03-19 15:42:02 GMT 40.080917 -77.043701 10,000 100 380 -64
2019-03-19 15:41:50 GMT 40.086178 -77.082138 10,000 100 380 0
2019-03-19 15:41:41 GMT 40.091251 -77.119530 10,000 99 381 0
2019-03-19 15:41:27 GMT 40.091251 -77.119530 10,000 99 381 0
2019-03-19 15:41:09 GMT 40.096939 -77.161682 10,000 100 380 64
2019-03-19 15:40:38 GMT 40.106369 -77.231384 10,000 100 379 0
2019-03-19 15:40:33 GMT 40.107918 -77.242622 10,000 100 379 0
2019-03-19 15:40:08 GMT 40.115318 -77.297623 10,000 100 379 -64
2019-03-19 15:40:03 GMT 40.117043 -77.310295 10,000 100 379 0
2019-03-19 15:39:59 GMT 40.118408 -77.320557 10,000 100 381 0
2019-03-19 15:39:52 GMT 40.120285 -77.334351 10,000 100 381 0
2019-03-19 15:39:34 GMT 40.125824 -77.374390 10,000 100 370 -64
2019-03-19 15:39:31 GMT 40.126678 -77.380707 10,000 98 343 0
2019-03-19 15:39:18 GMT 40.130356 -77.408295 10,000 99 345 128
2019-03-19 15:39:12 GMT 40.131985 -77.423218 10,000 97 344 64
2019-03-19 15:38:45 GMT 40.137772 -77.476990 10,000 97 343 -128
2019-03-19 15:38:34 GMT 40.139107 -77.498245 10,000 88 343 -128
2019-03-19 15:38:28 GMT 40.138550 -77.510544 10,000 79 342 -192
2019-03-19 15:38:17 GMT 40.134453 -77.533073 10,075 70 344 -960
2019-03-19 15:38:11 GMT 40.130684 -77.544563 10,175 60 343 -1600
2019-03-19 15:38:08 GMT 40.128387 -77.550171 10,225 49 336 -2880
2019-03-19 15:37:44 GMT 40.101540 -77.587135 11,550 32 328 -3712
2019-03-19 15:37:34 GMT 40.088013 -77.595215 12,175 17 322 -3840
2019-03-19 15:37:25 GMT 40.077576 -77.597656 12,775 5 318 -3712
2019-03-19 15:37:13 GMT 40.057922 -77.600182 13,450 5 321 -3712
2019-03-19 15:37:05 GMT 40.046768 -77.601624 14,350 6 323 -3968
2019-03-19 15:37:01 GMT 40.040817 -77.602417 14,175 6 323 -3968
2019-03-19 15:36:55 GMT 40.025757 -77.604614 15,250 6 330 -3136
2019-03-19 15:36:51 GMT 40.025757 -77.604614 14,775 6 330 -3136
2019-03-19 15:36:43 GMT 40.012020 -77.606796 15,250 7 335 -3648
2019-03-19 15:36:40 GMT 40.008949 -77.607300 15,375 7 335 -3776
2019-03-19 15:36:32 GMT 39.996517 -77.609230 15,825 6 337 -3968
2019-03-19 15:36:29 GMT 39.990932 -77.610107 16,125 6 338 -3968
2019-03-19 15:36:24 GMT 39.982544 -77.611328 18,500 6 338 -4096
2019-03-19 15:36:16 GMT 39.972218 -77.612480 16,950 3 336 -4352
2019-03-19 15:36:12 GMT 39.966339 -77.612671 17,200 0 334 -4416
2019-03-19 15:36:07 GMT 39.956543 -77.611389 17,725 348 324 -4288
2019-03-19 15:36:02 GMT 39.951038 -77.609604 22,950 343 321 -4224
2019-03-19 15:35:58 GMT 39.945145 -77.606689 18,300 321 311 -4096
2019-03-19 15:35:54 GMT 39.939972 -77.603149 18,575 329 314 -4288
2019-03-19 15:35:51 GMT 39.936466 -77.600121 18,800 326 312 -4224
2019-03-19 15:35:48 GMT 39.932880 -77.596313 19,275 314 309 -3968
2019-03-19 15:35:44 GMT 39.928783 -77.590942 19,300 310 308 -3904
2019-03-19 15:35:41 GMT 39.926102 -77.586609 19,450 307 307 -3904
2019-03-19 15:35:37 GMT 39.922409 -77.578918 19,775 302 307 -3840
2019-03-19 15:35:33 GMT 39.920609 -77.573685 19,975 289 307 -3904
2019-03-19 15:35:29 GMT 39.917751 -77.559692 22,375 256 320 -4608
2019-03-19 15:35:24 GMT 39.917751 -77.559692 20,500 279 309 -3968
2019-03-19 15:35:21 GMT 39.917286 -77.551453 20,875 270 314 -4096
2019-03-19 15:35:18 GMT 39.917496 -77.545921 20,975 258 319 -4416
2019-03-19 15:35:13 GMT 39.918503 -77.537445 21,800 258 319 -4416
2019-03-19 15:35:10 GMT 39.919662 -77.531250 21,550 256 320 -4544
2019-03-19 15:35:04 GMT 39.921803 -77.520691 22,200 256 320 -4672
2019-03-19 15:34:59 GMT 39.923805 -77.510979 25,500 256 320 -4672
2019-03-19 15:34:53 GMT 39.926010 -77.500183 22,825 255 320 -4480
2019-03-19 15:34:48 GMT 39.927994 -77.490875 23,100 255 320 -4416
2019-03-19 15:34:44 GMT 39.929993 -77.481567 26,275 257 328 -4160
2019-03-19 15:34:40 GMT 39.931091 -77.476379 23,750 255 322 -4160
2019-03-19 15:34:37 GMT 39.934708 -77.458984 26,275 257 328 -4160
2019-03-19 15:34:31 GMT 39.934708 -77.458984 24,350 255 326 -4288
2019-03-19 15:34:26 GMT 39.936699 -77.449432 24,725 255 327 -4480
2019-03-19 15:34:20 GMT 39.938965 -77.438416 25,175 255 327 -4608
2019-03-19 15:34:14 GMT 39.941162 -77.427734 25,600 256 327 -4608
2019-03-19 15:34:10 GMT 39.942799 -77.419777 25,900 256 328 -4416
2019-03-19 15:34:07 GMT 39.944473 -77.411293 26,375 256 328 -4352
2019-03-19 15:34:03 GMT 39.945419 -77.406494 26,550 257 329 -4096
2019-03-19 15:33:59 GMT 39.947407 -77.395935 26,825 258 330 -3968
2019-03-19 15:33:56 GMT 39.948151 -77.392067 27,125 258 330 -3968
2019-03-19 15:33:53 GMT 39.949501 -77.384323 27,250 258 330 -3968
2019-03-19 15:33:50 GMT 39.950363 -77.378479 27,425 261 331 -3712
2019-03-19 15:33:46 GMT 39.951084 -77.372528 27,725 264 333 -3200
2019-03-19 15:33:43 GMT 39.952061 -77.359795 27,825 265 333 -2880
2019-03-19 15:33:40 GMT 39.952061 -77.359795 27,900 269 336 -1344
2019-03-19 15:33:34 GMT 39.952194 -77.347229 28,000 272 338 -128
2019-03-19 15:33:30 GMT 39.951553 -77.326050 28,000 273 339 -192
2019-03-19 15:33:23 GMT 39.951553 -77.326050 28,025 273 339 -704
2019-03-19 15:33:20 GMT 39.951324 -77.320312 28,150 273 338 -1088
2019-03-19 15:33:16 GMT 39.951130 -77.313347 28,150 273 338 -1088
2019-03-19 15:33:12 GMT 39.950760 -77.303612 28,200 273 337 -1600
2019-03-19 15:33:05 GMT 39.950272 -77.289490 28,550 273 336 -1728
2019-03-19 15:33:01 GMT 39.949997 -77.281372 28,600 273 335 -1728
2019-03-19 15:32:57 GMT 39.949688 -77.272026 28,700 273 335 -1728
2019-03-19 15:32:53 GMT 39.949448 -77.265137 28,825 273 335 -1728
2019-03-19 15:32:50 GMT 39.949314 -77.260918 28,825 273 335 -1664
2019-03-19 15:32:46 GMT 39.948944 -77.250732 29,075 273 335 -1728
2019-03-19 15:32:42 GMT 39.948662 -77.243690 29,075 273 335 -1664
2019-03-19 15:32:38 GMT 39.948429 -77.235634 29,400 273 335 -1664
2019-03-19 15:32:35 GMT 39.948151 -77.227768 29,325 273 335 -1728
2019-03-19 15:32:32 GMT 39.948009 -77.223709 29,400 273 335 -1728
2019-03-19 15:32:29 GMT 39.947781 -77.217033 29,575 273 337 -1664
2019-03-19 15:32:24 GMT 39.947361 -77.204857 29,625 273 338 -1728
2019-03-19 15:32:19 GMT 39.947079 -77.195930 29,750 273 340 -1728
2019-03-19 15:32:13 GMT 39.946609 -77.183228 29,925 273 342 -1408
2019-03-19 15:32:10 GMT 39.946426 -77.178101 29,975 273 341 -768
2019-03-19 15:32:06 GMT 39.945778 -77.158981 30,000 273 340 -64
2019-03-19 15:32:01 GMT 39.945778 -77.158981 30,000 273 338 0
2019-03-19 15:31:58 GMT 39.945557 -77.152832 30,000 273 336 64
2019-03-19 15:31:55 GMT 39.945328 -77.146240 30,000 273 335 64
2019-03-19 15:31:50 GMT 39.945007 -77.137390 30,000 273 333 64
2019-03-19 15:31:47 GMT 39.944752 -77.130577 30,000 273 327 64
2019-03-19 15:31:44 GMT 39.944504 -77.123779 30,000 273 331 64
2019-03-19 15:31:40 GMT 39.944286 -77.117035 30,000 273 329 64
2019-03-19 15:31:36 GMT 39.943954 -77.107910 30,000 273 326 64
2019-03-19 15:31:33 GMT 39.943726 -77.102417 30,000 273 326 64
2019-03-19 15:31:28 GMT 39.943356 -77.092064 29,975 273 324 384
2019-03-19 15:31:25 GMT 39.943218 -77.088135 29,950 273 323 768
2019-03-19 15:31:21 GMT 39.942890 -77.078644 29,875 273 323 1344
2019-03-19 15:31:18 GMT 39.942673 -77.072876 29,800 273 323 1280
2019-03-19 15:31:14 GMT 39.942471 -77.066223 29,725 273 324 1216
2019-03-19 15:31:09 GMT 39.942101 -77.056107 29,450 273 321 960
2019-03-19 15:31:03 GMT 39.941402 -77.038132 29,500 273 322 960
2019-03-19 15:30:59 GMT 39.941402 -77.038132 29,475 273 323 1024
2019-03-19 15:30:56 GMT 39.941170 -77.031136 29,425 273 323 960
2019-03-19 15:30:53 GMT 39.940983 -77.026520 29,325 273 322 960
2019-03-19 15:30:49 GMT 39.940609 -77.016403 29,300 273 322 1024
2019-03-19 15:30:46 GMT 39.940247 -77.005920 29,200 273 322 1088
2019-03-19 15:30:43 GMT 39.940247 -77.005920 29,000 273 323 1536
2019-03-19 15:30:36 GMT 39.939789 -76.993469 28,950 273 322 1344
2019-03-19 15:30:32 GMT 39.939423 -76.984131 28,825 273 319 1216
2019-03-19 15:30:26 GMT 39.938980 -76.972839 28,825 273 323 1536
2019-03-19 15:30:23 GMT 39.938843 -76.968277 28,700 273 324 1408
2019-03-19 15:30:20 GMT 39.938644 -76.962463 28,400 273 322 896
2019-03-19 15:30:15 GMT 39.938324 -76.953796 28,525 273 324 1408
2019-03-19 15:30:12 GMT 39.938049 -76.946838 28,400 273 325 1216
2019-03-19 15:30:09 GMT 39.937862 -76.941002 28,450 273 325 1280
2019-03-19 15:30:05 GMT 39.937584 -76.933884 28,225 273 324 1088
2019-03-19 15:30:01 GMT 39.937225 -76.924316 28,275 273 324 1024
2019-03-19 15:29:58 GMT 39.937073 -76.920525 28,225 273 324 1024
2019-03-19 15:29:55 GMT 39.936790 -76.913658 28,175 273 324 960
2019-03-19 15:29:52 GMT 39.936584 -76.907715 28,075 273 323 896
2019-03-19 15:29:49 GMT 39.936356 -76.902283 28,100 273 323 896
2019-03-19 15:29:45 GMT 39.936142 -76.895683 28,075 273 323 896
2019-03-19 15:29:42 GMT 39.935631 -76.882507 27,925 273 320 1024
2019-03-19 15:29:39 GMT 39.935440 -76.877441 27,925 273 320 1024
2019-03-19 15:29:36 GMT 39.935162 -76.869339 27,875 273 320 1088
2019-03-19 15:29:32 GMT 39.934845 -76.861206 27,775 273 320 1088
2019-03-19 15:29:28 GMT 39.934845 -76.861206 27,600 273 319 1216
2019-03-19 15:29:23 GMT 39.934204 -76.845093 27,575 273 319 1216
2019-03-19 15:29:20 GMT 39.933952 -76.838501 27,500 273 319 1216
2019-03-19 15:29:16 GMT 39.933746 -76.832764 27,175 273 317 1152
2019-03-19 15:29:13 GMT 39.933746 -76.832764 27,450 273 319 1280
2019-03-19 15:29:08 GMT 39.933300 -76.821648 27,325 273 319 1280
2019-03-19 15:29:03 GMT 39.933014 -76.813599 27,200 273 319 1344
2019-03-19 15:29:00 GMT 39.932789 -76.807854 27,175 273 319 1408
2019-03-19 15:28:56 GMT 39.932556 -76.801735 27,100 273 319 1408
2019-03-19 15:28:52 GMT 39.932190 -76.792847 26,975 273 319 1408
2019-03-19 15:28:49 GMT 39.932007 -76.787476 26,925 273 319 1408
2019-03-19 15:28:46 GMT 39.931686 -76.779785 26,850 273 319 1344
2019-03-19 15:28:41 GMT 39.931393 -76.772400 26,675 273 319 1344
2019-03-19 15:28:38 GMT 39.931065 -76.764221 26,675 273 319 1344
2019-03-19 15:28:34 GMT 39.930786 -76.756294 26,575 273 319 1344
2019-03-19 15:28:31 GMT 39.930649 -76.753235 26,500 273 319 1088
2019-03-19 15:28:28 GMT 39.930367 -76.746307 26,450 273 319 1408
2019-03-19 15:28:23 GMT 39.929951 -76.734818 26,275 273 319 1280
2019-03-19 15:28:18 GMT 39.929623 -76.727264 26,150 273 317 1152
2019-03-19 15:28:15 GMT 39.929123 -76.713867 26,150 273 319 1152
2019-03-19 15:28:12 GMT 39.929123 -76.713867 26,100 273 319 1152
2019-03-19 15:28:04 GMT 39.928574 -76.699890 26,000 273 318 1088
2019-03-19 15:28:01 GMT 39.928322 -76.694244 25,500 273 314 1088
2019-03-19 15:27:58 GMT 39.927887 -76.683228 25,775 273 317 1280
2019-03-19 15:27:55 GMT 39.927887 -76.683228 25,700 273 317 1216
2019-03-19 15:27:52 GMT 39.927670 -76.677521 25,725 273 317 1216
2019-03-19 15:27:48 GMT 39.927109 -76.662720 25,425 273 316 1152
2019-03-19 15:27:45 GMT 39.927109 -76.662720 25,575 273 316 1152
2019-03-19 15:27:40 GMT 39.926834 -76.655701 25,500 273 316 1152
2019-03-19 15:27:36 GMT 39.926502 -76.647804 25,425 273 316 1152
2019-03-19 15:27:30 GMT 39.926041 -76.635628 25,300 273 315 1088
2019-03-19 15:27:27 GMT 39.925781 -76.629944 25,250 273 314 1088
2019-03-19 15:27:20 GMT 39.925201 -76.615158 25,125 273 314 1088
2019-03-19 15:27:16 GMT 39.924957 -76.608765 25,075 273 313 1024
2019-03-19 15:27:12 GMT 39.924362 -76.594116 24,975 273 312 1088
2019-03-19 15:27:08 GMT 39.924362 -76.594116 24,900 273 310 1472
2019-03-19 15:27:05 GMT 39.924038 -76.586754 24,850 273 311 1088
2019-03-19 15:27:01 GMT 39.923759 -76.579140 24,800 273 310 1152
2019-03-19 15:26:57 GMT 39.923492 -76.572754 24,650 273 310 1280
2019-03-19 15:26:53 GMT 39.923244 -76.566406 24,650 273 310 1280
2019-03-19 15:26:50 GMT 39.923035 -76.560852 24,125 273 309 1408
2019-03-19 15:26:46 GMT 39.922668 -76.551208 24,475 273 310 1408
2019-03-19 15:26:43 GMT 39.922211 -76.540794 24,375 273 310 1408
2019-03-19 15:26:40 GMT 39.922211 -76.540794 24,325 273 310 1472
2019-03-19 15:26:35 GMT 39.921844 -76.531059 24,175 273 310 1344
2019-03-19 15:26:31 GMT 39.921570 -76.524376 24,125 274 309 1408
2019-03-19 15:26:28 GMT 39.921429 -76.520996 23,725 273 309 1408
2019-03-19 15:26:22 GMT 39.920963 -76.509094 23,925 274 309 1472
2019-03-19 15:26:19 GMT 39.920654 -76.502045 23,850 273 309 1472
2019-03-19 15:26:11 GMT 39.920013 -76.486336 23,650 273 309 1408
2019-03-19 15:26:08 GMT 39.919800 -76.480713 23,575 274 309 1344
2019-03-19 15:26:03 GMT 39.919430 -76.472534 23,475 274 309 1344
2019-03-19 15:25:55 GMT 39.918915 -76.459648 23,025 274 308 320
2019-03-19 15:25:51 GMT 39.918457 -76.449081 23,200 274 309 1344
2019-03-19 15:25:46 GMT 39.918137 -76.441673 23,025 274 309 704
2019-03-19 15:25:43 GMT 39.917892 -76.435364 23,000 274 307 0
2019-03-19 15:25:40 GMT 39.917614 -76.428650 23,000 274 307 0
2019-03-19 15:25:29 GMT 39.916775 -76.408752 23,000 273 306 64
2019-03-19 15:25:23 GMT 39.916351 -76.398987 23,000 273 307 64
2019-03-19 15:25:18 GMT 39.915939 -76.388535 23,000 273 307 64
2019-03-19 15:25:14 GMT 39.915703 -76.382935 23,000 273 307 64
2019-03-19 15:25:10 GMT 39.915424 -76.375732 23,000 273 307 64
2019-03-19 15:25:07 GMT 39.915100 -76.368347 23,000 273 308 64
2019-03-19 15:25:03 GMT 39.914841 -76.361908 23,000 273 308 64
2019-03-19 15:24:59 GMT 39.914474 -76.353012 22,975 274 306 1088
2019-03-19 15:24:56 GMT 39.914291 -76.348412 22,950 273 307 832
2019-03-19 15:24:53 GMT 39.914074 -76.343628 22,275 273 302 1280
2019-03-19 15:24:48 GMT 39.913750 -76.334839 22,600 274 306 1472
2019-03-19 15:24:45 GMT 39.913471 -76.328247 22,725 273 306 1472
2019-03-19 15:24:42 GMT 39.913284 -76.323792 22,525 274 305 1472
2019-03-19 15:24:37 GMT 39.912827 -76.313065 22,525 274 305 1472
2019-03-19 15:24:32 GMT 39.912506 -76.305008 22,250 274 305 1472
2019-03-19 15:24:26 GMT 39.912071 -76.294373 22,175 274 304 1216
2019-03-19 15:24:23 GMT 39.911793 -76.287842 22,200 274 304 1280
2019-03-19 15:24:16 GMT 39.911316 -76.275810 22,050 274 304 1280
2019-03-19 15:24:12 GMT 39.911003 -76.268127 21,975 273 303 1280
2019-03-19 15:24:08 GMT 39.910725 -76.260986 21,875 273 302 1280
2019-03-19 15:24:01 GMT 39.910217 -76.247269 21,725 273 301 1216
2019-03-19 15:23:53 GMT 39.909668 -76.232819 21,575 274 300 1280
2019-03-19 15:23:50 GMT 39.909485 -76.228516 21,250 274 299 1280
2019-03-19 15:23:44 GMT 39.908981 -76.218491 21,125 274 298 1344
2019-03-19 15:23:41 GMT 39.908676 -76.212341 21,175 272 297 1472
2019-03-19 15:23:38 GMT 39.908443 -76.207336 21,300 274 297 1344
2019-03-19 15:23:34 GMT 39.908211 -76.200928 21,125 273 297 1408
2019-03-19 15:23:31 GMT 39.908020 -76.196274 20,800 270 296 1408
2019-03-19 15:23:28 GMT 39.907791 -76.188454 20,875 272 297 1472
2019-03-19 15:23:23 GMT 39.907654 -76.180573 20,900 271 296 1472
2019-03-19 15:23:20 GMT 39.907604 -76.175232 20,825 269 294 1408
2019-03-19 15:23:16 GMT 39.907558 -76.168762 20,750 270 296 1408
2019-03-19 15:23:11 GMT 39.907745 -76.158478 20,600 269 295 1472
2019-03-19 15:23:05 GMT 39.908112 -76.142181 20,200 269 294 1408
2019-03-19 15:22:58 GMT 39.908249 -76.136505 20,325 269 294 1408
2019-03-19 15:22:55 GMT 39.908386 -76.129463 20,225 269 293 1408
2019-03-19 15:22:52 GMT 39.908489 -76.124817 20,200 269 292 1792
2019-03-19 15:22:49 GMT 39.908615 -76.120987 20,000 269 292 1600
2019-03-19 15:22:46 GMT 39.908752 -76.113998 20,000 269 292 1664
2019-03-19 15:22:43 GMT 39.908890 -76.109039 19,850 269 292 1728
2019-03-19 15:22:39 GMT 39.909027 -76.102715 19,800 269 292 1792
2019-03-19 15:22:34 GMT 39.909256 -76.092804 19,625 269 292 1792
2019-03-19 15:22:31 GMT 39.909348 -76.087250 19,550 269 292 1792
2019-03-19 15:22:22 GMT 39.909714 -76.070946 19,125 269 290 1728
2019-03-19 15:22:19 GMT 39.909805 -76.066711 18,500 269 291 1472
2019-03-19 15:22:16 GMT 39.909943 -76.062531 18,800 269 291 1472
2019-03-19 15:22:12 GMT 39.910118 -76.053772 18,925 269 291 1472
2019-03-19 15:22:07 GMT 39.910397 -76.041870 18,650 269 290 2048
2019-03-19 15:22:04 GMT 39.910397 -76.041870 18,825 269 290 1792
2019-03-19 15:22:01 GMT 39.910488 -76.036987 18,775 269 290 2048
2019-03-19 15:21:58 GMT 39.910679 -76.029480 18,725 269 290 2176
2019-03-19 15:21:53 GMT 39.910812 -76.023361 18,475 269 291 2112
2019-03-19 15:21:50 GMT 39.910908 -76.017456 18,350 269 292 1984
2019-03-19 15:21:47 GMT 39.911041 -76.012192 18,250 269 292 1920
2019-03-19 15:21:42 GMT 39.911270 -76.002342 18,100 269 292 1856
2019-03-19 15:21:37 GMT 39.911423 -75.994934 17,850 269 292 1728
2019-03-19 15:21:33 GMT 39.911610 -75.985779 17,825 269 291 1664
2019-03-19 15:21:29 GMT 39.911747 -75.980103 17,700 269 291 1664
2019-03-19 15:21:26 GMT 39.911957 -75.968666 17,550 269 289 1600
2019-03-19 15:21:23 GMT 39.912071 -75.964111 17,550 269 289 1600
2019-03-19 15:21:16 GMT 39.912212 -75.957703 17,300 269 288 1600
2019-03-19 15:21:09 GMT 39.912460 -75.944901 17,175 269 287 1728
2019-03-19 15:21:06 GMT 39.912724 -75.934937 17,025 269 286 1728
2019-03-19 15:20:59 GMT 39.912865 -75.927979 16,900 269 286 1792
2019-03-19 15:20:55 GMT 39.913010 -75.921379 16,725 269 285 1856
2019-03-19 15:20:47 GMT 39.913284 -75.906990 16,525 269 284 1984
2019-03-19 15:20:44 GMT 39.913513 -75.896004 16,300 269 284 2112
2019-03-19 15:20:38 GMT 39.913563 -75.893616 16,150 269 284 2048
2019-03-19 15:20:35 GMT 39.913696 -75.887764 16,150 269 284 2048
2019-03-19 15:20:32 GMT 39.913834 -75.880417 16,000 269 284 1920
2019-03-19 15:20:26 GMT 39.914154 -75.865967 15,800 269 283 2048
2019-03-19 15:20:23 GMT 39.914154 -75.865967 15,700 269 283 2176
2019-03-19 15:20:15 GMT 39.914539 -75.847046 15,400 269 284 2368
2019-03-19 15:20:12 GMT 39.914539 -75.847046 15,300 269 284 2432
2019-03-19 15:20:06 GMT 39.914772 -75.836731 15,125 269 285 2368
2019-03-19 15:20:03 GMT 39.914822 -75.833313 14,975 269 285 2304
2019-03-19 15:20:00 GMT 39.914932 -75.828171 14,850 269 285 2304
2019-03-19 15:19:57 GMT 39.915054 -75.822327 14,750 269 284 2176
2019-03-19 15:19:54 GMT 39.915100 -75.818848 14,650 269 285 2176
2019-03-19 15:19:51 GMT 39.915253 -75.810982 14,500 269 285 2048
2019-03-19 15:19:47 GMT 39.915565 -75.796387 14,275 269 284 2176
2019-03-19 15:19:42 GMT 39.915565 -75.796387 13,725 269 283 2240
2019-03-19 15:19:36 GMT 39.915756 -75.786377 13,900 269 284 2176
2019-03-19 15:19:29 GMT 39.916031 -75.773682 13,725 269 283 2240
2019-03-19 15:19:26 GMT 39.916077 -75.769653 13,625 269 283 2304
2019-03-19 15:19:20 GMT 39.916309 -75.759399 12,925 269 283 2304
2019-03-19 15:19:16 GMT 39.916451 -75.751160 13,225 269 283 2304
2019-03-19 15:19:10 GMT 39.916626 -75.741302 12,925 269 282 2176
2019-03-19 15:19:05 GMT 39.916763 -75.733894 12,900 269 282 2176
2019-03-19 15:18:58 GMT 39.917007 -75.721313 12,550 269 282 2880
2019-03-19 15:18:54 GMT 39.917130 -75.714905 12,475 269 281 2560
2019-03-19 15:18:48 GMT 39.917336 -75.705078 12,050 269 282 2880
2019-03-19 15:18:45 GMT 39.917427 -75.698303 11,900 270 283 2816
2019-03-19 15:18:40 GMT 39.917496 -75.691147 11,300 275 283 2624
2019-03-19 15:18:35 GMT 39.917194 -75.682617 11,500 275 283 2624
2019-03-19 15:18:28 GMT 39.916122 -75.670784 11,275 279 283 2304
2019-03-19 15:18:25 GMT 39.914566 -75.661530 10,975 285 281 1728
2019-03-19 15:18:22 GMT 39.914566 -75.661530 11,025 290 278 1472
2019-03-19 15:18:16 GMT 39.911865 -75.650482 10,850 292 276 1600
2019-03-19 15:18:13 GMT 39.910904 -75.647377 10,800 292 275 1600
2019-03-19 15:18:10 GMT 39.909805 -75.643677 10,725 292 274 1792
2019-03-19 15:18:03 GMT 39.905869 -75.630775 10,475 292 272 1728
2019-03-19 15:17:55 GMT 39.902622 -75.620117 10,325 292 270 1472
2019-03-19 15:17:52 GMT 39.900852 -75.614136 10,250 292 265 1088
2019-03-19 15:17:48 GMT 39.899277 -75.609100 10,175 292 254 1728
2019-03-19 15:17:44 GMT 39.897083 -75.601807 10,125 292 257 1152
2019-03-19 15:17:40 GMT 39.895935 -75.598061 10,050 292 253 2048
2019-03-19 15:17:37 GMT 39.894562 -75.593521 9,925 292 251 2496
2019-03-19 15:17:33 GMT 39.892941 -75.588135 9,625 292 251 2816
2019-03-19 15:17:29 GMT 39.891216 -75.582520 9,575 292 251 3264
2019-03-19 15:17:25 GMT 39.889389 -75.576508 9,375 292 252 3328
2019-03-19 15:17:21 GMT 39.887695 -75.570892 9,200 292 252 3456
2019-03-19 15:17:18 GMT 39.886562 -75.567078 9,075 292 259 3456
2019-03-19 15:17:11 GMT 39.883484 -75.557037 8,575 292 259 3328
2019-03-19 15:17:07 GMT 39.881069 -75.549072 8,275 292 260 3200
2019-03-19 15:17:01 GMT 39.878311 -75.539963 7,950 292 262 3136
2019-03-19 15:16:58 GMT 39.877670 -75.537842 7,875 292 262 3136
2019-03-19 15:16:52 GMT 39.874599 -75.527771 7,525 292 262 2944
2019-03-19 15:16:49 GMT 39.873459 -75.523956 7,400 292 262 2944
2019-03-19 15:16:45 GMT 39.871944 -75.519104 7,225 292 262 2944
2019-03-19 15:16:38 GMT 39.867058 -75.503052 6,800 292 262 2816
2019-03-19 15:16:35 GMT 39.867058 -75.503052 6,700 292 262 2816
2019-03-19 15:16:30 GMT 39.864731 -75.495422 6,450 292 261 2752
2019-03-19 15:16:26 GMT 39.863007 -75.489685 6,300 292 260 2752
2019-03-19 15:16:16 GMT 39.858540 -75.475037 5,700 292 258 2944
2019-03-19 15:16:09 GMT 39.855972 -75.466583 5,475 292 258 3008
2019-03-19 15:16:06 GMT 39.854630 -75.462219 5,400 292 258 3008
2019-03-19 15:16:03 GMT 39.852997 -75.456787 5,200 292 257 3008
2019-03-19 15:15:58 GMT 39.851135 -75.450806 5,000 292 257 3072
2019-03-19 15:15:53 GMT 39.848484 -75.442078 4,675 292 258 3072
2019-03-19 15:15:48 GMT 39.846851 -75.436829 4,475 292 257 3072
2019-03-19 15:15:44 GMT 39.844437 -75.428963 4,200 292 257 2944
2019-03-19 15:15:37 GMT 39.841965 -75.420906 3,925 292 256 2688
2019-03-19 15:15:32 GMT 39.839722 -75.413437 3,700 288 254 2240
2019-03-19 15:15:28 GMT 39.837891 -75.405678 3,500 283 253 1920
2019-03-19 15:15:22 GMT 39.836937 -75.398193 3,400 255 221 1664
2019-03-19 15:15:16 GMT 39.836975 -75.390152 3,275 264 244 832
2019-03-19 15:15:07 GMT 39.839546 -75.375977 3,150 255 224 1472
2019-03-19 15:14:58 GMT 39.842060 -75.364014 2,850 255 216 2368
2019-03-19 15:14:55 GMT 39.842514 -75.361732 2,775 255 216 2496
2019-03-19 15:14:50 GMT 39.843826 -75.355469 2,550 255 213 2944
2019-03-19 15:14:46 GMT 39.845131 -75.349426 2,350 255 213 2880
2019-03-19 15:14:39 GMT 39.846806 -75.341492 2,050 255 213 3008
2019-03-19 15:14:34 GMT 39.848007 -75.335762 1,800 255 213 2688
2019-03-19 15:14:30 GMT 39.849041 -75.330688 1,550 255 212 2688
2019-03-19 15:14:26 GMT 39.850067 -75.325790 1,400 256 207 1408
2019-03-19 15:14:20 GMT 39.851509 -75.318665 1,225 256 205 1088
2019-03-19 15:14:13 GMT 39.853184 -75.310608 1,175 256 198 576
2019-03-19 15:14:09 GMT 39.854347 -75.304749 1,125 257 186 448
2019-03-19 15:14:03 GMT 39.855423 -75.299103 1,100 256 174 576
2019-03-19 15:13:56 GMT 39.856888 -75.291573 950 256 163 1344

Making use of Plane Finder data

You are free to use the raw flight data, aircraft information and images provided in this report for your own purposes provided the data is correctly attributed to Plane Finder. We ask that you please credit Plane Finder and link to planefinder.net in close proximity to the content.

Optionally one of the following logos (no smaller then 150x24px) can be used and must link to planefinder.net

Embedding the Plane Finder map

You are welcome to embed the Plane Finder playback map on your website to offer visitors a more interactive experience. We suggest using the following HTML code:

<iframe src="//planefinder.net/data/report/AA4621-N405YX-7700-squawk-2019-03-19/map" width="800" height="600" seamless="seamless"></iframe>

Where our data comes from

Plane Finder has a global network of data feeds and antenna radars that receive data broadcast directly from aircraft. The primary technologies used are ADS-B and MLAT. We also show feeds from the FAA and a FLARM glider feed.

Click here to find out more about the Plane Finder network.

How we collect our data